createdAt,value
2023-04-28T00:00:26.201Z,22.86
2023-04-28T00:01:26.196Z,22.86
2023-04-28T00:02:26.239Z,22.87
2023-04-28T00:03:26.283Z,22.87
2023-04-28T00:04:26.524Z,22.86
2023-04-28T00:05:26.337Z,22.86
2023-04-28T00:06:26.368Z,22.86
2023-04-28T00:07:26.415Z,22.86
2023-04-28T00:08:26.470Z,22.87
2023-04-28T00:09:26.532Z,22.86
2023-04-28T00:10:26.599Z,22.87
2023-04-28T00:11:26.665Z,22.86
2023-04-28T00:12:26.729Z,22.85
2023-04-28T00:13:26.779Z,22.86
2023-04-28T00:14:26.800Z,22.86
2023-04-28T00:15:26.875Z,22.85
2023-04-28T00:16:27.013Z,22.85
2023-04-28T00:17:27.171Z,22.86
2023-04-28T00:18:27.136Z,22.85
2023-04-28T00:19:27.134Z,22.85
2023-04-28T00:20:27.191Z,22.86
2023-04-28T00:21:27.279Z,22.85
2023-04-28T00:22:27.305Z,22.86
2023-04-28T00:23:27.367Z,22.86
2023-04-28T00:24:27.457Z,22.85
2023-04-28T00:25:27.483Z,22.85
2023-04-28T00:26:27.559Z,22.85
2023-04-28T00:27:27.615Z,22.85
2023-04-28T00:28:34.132Z,22.85
2023-04-28T00:29:28.679Z,22.85
2023-04-28T00:30:27.688Z,22.85
2023-04-28T00:31:27.726Z,22.84
2023-04-28T00:32:27.740Z,22.84
2023-04-28T00:33:27.723Z,22.84
2023-04-28T00:34:27.690Z,22.84
2023-04-28T00:35:27.689Z,22.85
2023-04-28T00:36:27.698Z,22.85
2023-04-28T00:37:27.690Z,22.84
2023-04-28T00:38:27.775Z,22.84
2023-04-28T00:39:27.849Z,22.84
2023-04-28T00:40:27.908Z,22.85
2023-04-28T00:41:27.973Z,22.84
2023-04-28T00:42:28.037Z,22.84
2023-04-28T00:43:28.069Z,22.84
2023-04-28T00:44:28.124Z,22.85
2023-04-28T00:45:28.213Z,22.84
2023-04-28T00:46:28.258Z,22.84
2023-04-28T00:47:28.387Z,22.84
2023-04-28T00:48:28.394Z,22.84
2023-04-28T00:49:28.453Z,22.84
2023-04-28T00:50:28.499Z,22.83
2023-04-28T00:51:28.569Z,22.83
2023-04-28T00:52:28.638Z,22.84
2023-04-28T00:53:28.698Z,22.83
2023-04-28T00:54:28.734Z,22.83
2023-04-28T00:55:28.799Z,22.84
2023-04-28T00:56:28.847Z,22.83
2023-04-28T00:57:28.900Z,22.83
2023-04-28T00:58:28.954Z,22.83
2023-04-28T00:59:28.995Z,22.83
2023-04-28T01:00:29.049Z,22.83
2023-04-28T01:01:29.150Z,22.83
2023-04-28T01:02:29.290Z,22.83
2023-04-28T01:03:29.336Z,22.83
2023-04-28T01:04:29.545Z,22.82
2023-04-28T01:05:29.322Z,22.83
2023-04-28T01:06:29.358Z,22.83
2023-04-28T01:07:29.401Z,22.83
2023-04-28T01:08:29.444Z,22.83
2023-04-28T01:09:29.488Z,22.82
2023-04-28T01:10:29.552Z,22.82
2023-04-28T01:11:29.658Z,22.82
2023-04-28T01:12:29.643Z,22.82
2023-04-28T01:13:29.707Z,22.82
2023-04-28T01:14:29.756Z,22.83
2023-04-28T01:15:29.811Z,22.83
2023-04-28T01:16:29.940Z,22.82
2023-04-28T01:17:29.985Z,22.82
2023-04-28T01:18:29.969Z,22.82
2023-04-28T01:19:30.022Z,22.83
2023-04-28T01:20:30.075Z,22.83
2023-04-28T01:21:30.117Z,22.83
2023-04-28T01:22:30.175Z,22.83
2023-04-28T01:23:30.237Z,22.82
2023-04-28T01:24:30.285Z,22.81
2023-04-28T01:25:30.371Z,22.81
2023-04-28T01:26:30.409Z,22.82
2023-04-28T01:27:30.479Z,22.82
2023-04-28T01:28:30.553Z,22.80
2023-04-28T01:29:30.619Z,22.82
2023-04-28T01:30:30.674Z,22.82
2023-04-28T01:31:30.852Z,22.81
2023-04-28T01:32:30.827Z,22.81
2023-04-28T01:33:30.861Z,22.81
2023-04-28T01:34:30.936Z,22.82
2023-04-28T01:35:31.013Z,22.81
2023-04-28T01:36:31.103Z,22.81
2023-04-28T01:37:31.161Z,22.80
2023-04-28T01:38:31.227Z,22.80
2023-04-28T01:39:31.299Z,22.82
2023-04-28T01:40:31.369Z,22.81
2023-04-28T01:41:31.440Z,22.81
2023-04-28T01:42:31.501Z,22.80
2023-04-28T01:43:31.557Z,22.81
2023-04-28T01:44:31.641Z,22.81
2023-04-28T01:45:31.692Z,22.81
2023-04-28T01:46:31.881Z,22.81
2023-04-28T01:47:31.892Z,22.81
2023-04-28T01:48:31.893Z,22.81
2023-04-28T01:49:31.952Z,22.80
2023-04-28T01:50:31.995Z,22.80
2023-04-28T01:51:32.050Z,22.80
2023-04-28T01:52:32.116Z,22.80
2023-04-28T01:53:32.184Z,22.81
2023-04-28T01:54:32.231Z,22.80
2023-04-28T01:55:32.315Z,22.80
2023-04-28T01:56:32.344Z,22.80
2023-04-28T01:57:32.409Z,22.80
2023-04-28T01:58:33.151Z,22.80
2023-04-28T01:59:32.540Z,22.80
2023-04-28T02:00:32.587Z,22.80
2023-04-28T02:01:32.695Z,22.80
2023-04-28T02:02:32.771Z,22.80
2023-04-28T02:03:32.900Z,22.79
2023-04-28T02:04:32.918Z,22.80
2023-04-28T02:05:32.932Z,22.80
2023-04-28T02:06:32.977Z,22.80
2023-04-28T02:07:33.117Z,22.80
2023-04-28T02:08:33.120Z,22.79
2023-04-28T02:09:33.173Z,22.79
2023-04-28T02:10:33.213Z,22.79
2023-04-28T02:11:33.260Z,22.79
2023-04-28T02:12:33.311Z,22.79
2023-04-28T02:13:33.370Z,22.79
2023-04-28T02:14:33.429Z,22.79
2023-04-28T02:15:33.495Z,22.79
2023-04-28T02:16:33.601Z,22.78
2023-04-28T02:17:33.622Z,22.78
2023-04-28T02:18:33.646Z,22.79
2023-04-28T02:19:33.697Z,22.79
2023-04-28T02:20:33.751Z,22.79
2023-04-28T02:21:33.789Z,22.79
2023-04-28T02:22:33.825Z,22.79
2023-04-28T02:23:33.964Z,22.79
2023-04-28T02:24:33.928Z,22.79
2023-04-28T02:25:33.988Z,22.79
2023-04-28T02:26:34.038Z,22.79
2023-04-28T02:27:34.114Z,22.78
2023-04-28T02:28:34.187Z,22.79
2023-04-28T02:29:34.258Z,22.78
2023-04-28T02:30:34.328Z,22.79
2023-04-28T02:31:34.386Z,22.78
2023-04-28T02:32:34.457Z,22.78
2023-04-28T02:33:34.501Z,22.78
2023-04-28T02:34:34.548Z,22.78
2023-04-28T02:35:34.629Z,22.78
2023-04-28T02:36:34.694Z,22.78
2023-04-28T02:37:34.739Z,22.78
2023-04-28T02:38:34.819Z,22.78
2023-04-28T02:39:34.910Z,22.78
2023-04-28T02:40:34.980Z,22.77
2023-04-28T02:41:35.076Z,22.77
2023-04-28T02:42:35.084Z,22.78
2023-04-28T02:43:35.170Z,22.77
2023-04-28T02:44:35.225Z,22.78
2023-04-28T02:45:35.267Z,22.77
2023-04-28T02:46:35.360Z,22.78
2023-04-28T02:47:35.399Z,22.77
2023-04-28T02:48:35.432Z,22.77
2023-04-28T02:49:35.465Z,22.77
2023-04-28T02:50:35.544Z,22.77
2023-04-28T02:51:35.598Z,22.77
2023-04-28T02:52:35.633Z,22.77
2023-04-28T02:53:35.690Z,22.77
2023-04-28T02:54:35.749Z,22.77
2023-04-28T02:55:35.856Z,22.77
2023-04-28T02:56:35.880Z,22.77
2023-04-28T02:57:35.902Z,22.76
2023-04-28T02:58:35.926Z,22.76
2023-04-28T02:59:35.982Z,22.76
2023-04-28T03:00:36.008Z,22.76
2023-04-28T03:01:36.133Z,22.77
2023-04-28T03:02:36.092Z,22.77
2023-04-28T03:03:36.263Z,22.77
2023-04-28T03:04:36.127Z,22.78
2023-04-28T03:05:36.101Z,22.78
2023-04-28T03:06:36.144Z,22.78
2023-04-28T03:07:36.200Z,22.78
2023-04-28T03:08:36.206Z,22.80
2023-04-28T03:09:36.240Z,22.79
2023-04-28T03:10:36.258Z,22.81
2023-04-28T03:11:36.316Z,22.82
2023-04-28T03:12:36.358Z,22.81
2023-04-28T03:13:36.427Z,22.82
2023-04-28T03:14:36.495Z,22.83
2023-04-28T03:15:36.540Z,22.83
2023-04-28T03:16:36.635Z,22.83
2023-04-28T03:17:36.692Z,22.85
2023-04-28T03:18:36.701Z,22.85
2023-04-28T03:19:36.758Z,22.86
2023-04-28T03:20:36.828Z,22.87
2023-04-28T03:21:36.891Z,22.87
2023-04-28T03:22:36.944Z,22.88
2023-04-28T03:23:37.013Z,22.88
2023-04-28T03:24:37.068Z,22.88
2023-04-28T03:25:37.124Z,22.89
2023-04-28T03:26:37.229Z,22.89
2023-04-28T03:27:37.237Z,22.90
2023-04-28T03:28:37.363Z,22.90
2023-04-28T03:29:37.365Z,22.91
2023-04-28T03:30:37.400Z,22.91
2023-04-28T03:31:37.522Z,22.91
2023-04-28T03:32:37.540Z,22.92
2023-04-28T03:33:37.557Z,22.93
2023-04-28T03:34:37.614Z,22.93
2023-04-28T03:35:37.680Z,22.93
2023-04-28T03:36:37.729Z,22.93
2023-04-28T03:37:37.794Z,22.93
2023-04-28T03:38:37.854Z,22.93
2023-04-28T03:39:37.903Z,22.94
2023-04-28T03:40:37.952Z,22.94
2023-04-28T03:41:37.992Z,22.95
2023-04-28T03:42:38.044Z,22.95
2023-04-28T03:43:38.104Z,22.95
2023-04-28T03:44:38.173Z,22.95
2023-04-28T03:45:38.282Z,22.96
2023-04-28T03:46:38.289Z,22.96
2023-04-28T03:47:38.344Z,22.96
2023-04-28T03:48:38.404Z,22.96
2023-04-28T03:49:38.475Z,22.96
2023-04-28T03:50:38.544Z,22.96
2023-04-28T03:51:38.622Z,22.97
2023-04-28T03:52:38.677Z,22.96
2023-04-28T03:53:38.726Z,22.96
2023-04-28T03:54:38.798Z,22.96
2023-04-28T03:55:38.857Z,22.97
2023-04-28T03:56:38.919Z,22.97
2023-04-28T03:57:38.979Z,22.97
2023-04-28T03:58:39.030Z,22.97
2023-04-28T03:59:39.081Z,22.97
2023-04-28T04:00:39.143Z,22.98
2023-04-28T04:01:39.201Z,22.97
2023-04-28T04:02:39.454Z,22.97
2023-04-28T04:03:39.453Z,22.97
2023-04-28T04:04:39.653Z,22.98
2023-04-28T04:05:39.489Z,22.98
2023-04-28T04:06:39.481Z,22.98
2023-04-28T04:07:39.539Z,22.97
2023-04-28T04:08:39.602Z,22.98
2023-04-28T04:09:39.674Z,22.97
2023-04-28T04:10:39.745Z,22.97
2023-04-28T04:11:39.934Z,22.97
2023-04-28T04:12:39.886Z,22.97
2023-04-28T04:13:39.954Z,22.97
2023-04-28T04:14:40.015Z,22.98
2023-04-28T04:15:40.144Z,22.98
2023-04-28T04:16:40.138Z,22.98
2023-04-28T04:17:40.247Z,22.98
2023-04-28T04:18:40.258Z,22.98
2023-04-28T04:19:40.315Z,22.98
2023-04-28T04:20:40.382Z,22.99
2023-04-28T04:21:40.451Z,22.99
2023-04-28T04:22:40.518Z,22.98
2023-04-28T04:23:40.592Z,23.00
2023-04-28T04:24:40.642Z,22.99
2023-04-28T04:25:40.706Z,22.99
2023-04-28T04:26:40.784Z,22.99
2023-04-28T04:27:40.851Z,22.99
2023-04-28T04:28:40.924Z,22.99
2023-04-28T04:29:41.004Z,22.99
2023-04-28T04:30:41.064Z,22.99
2023-04-28T04:31:41.200Z,22.99
2023-04-28T04:32:41.259Z,22.99
2023-04-28T04:33:41.227Z,22.98
2023-04-28T04:34:41.284Z,22.98
2023-04-28T04:35:41.332Z,22.98
2023-04-28T04:36:41.381Z,22.98
2023-04-28T04:37:41.508Z,22.98
2023-04-28T04:38:41.497Z,22.98
2023-04-28T04:39:41.555Z,22.99
2023-04-28T04:40:41.638Z,22.99
2023-04-28T04:41:41.682Z,22.98
2023-04-28T04:42:41.729Z,22.99
2023-04-28T04:43:41.776Z,22.99
2023-04-28T04:44:41.824Z,22.98
2023-04-28T04:45:41.883Z,22.98
2023-04-28T04:46:42.030Z,22.98
2023-04-28T04:47:42.135Z,22.99
2023-04-28T04:48:42.073Z,22.98
2023-04-28T04:49:42.138Z,22.99
2023-04-28T04:50:42.197Z,22.98
2023-04-28T04:51:42.268Z,22.99
2023-04-28T04:52:42.298Z,22.99
2023-04-28T04:53:42.386Z,22.98
2023-04-28T04:54:42.463Z,22.98
2023-04-28T04:55:42.544Z,22.98
2023-04-28T04:56:42.620Z,22.99
2023-04-28T04:57:42.695Z,22.98
2023-04-28T04:58:42.750Z,22.98
2023-04-28T04:59:42.800Z,22.97
2023-04-28T05:00:42.877Z,22.98
2023-04-28T05:01:43.008Z,22.98
2023-04-28T05:02:43.106Z,22.98
2023-04-28T05:03:43.174Z,22.97
2023-04-28T05:04:43.308Z,22.97
2023-04-28T05:06:43.240Z,22.98
2023-04-28T05:07:43.284Z,22.98
2023-04-28T05:08:43.356Z,22.97
2023-04-28T05:09:43.414Z,22.97
2023-04-28T05:10:43.469Z,22.98
2023-04-28T05:11:43.532Z,22.97
2023-04-28T05:12:43.622Z,22.97
2023-04-28T05:13:43.699Z,22.97
2023-04-28T05:14:43.765Z,22.97
2023-04-28T05:15:43.830Z,22.97
2023-04-28T05:16:43.946Z,22.97
2023-04-28T05:17:44.011Z,22.97
2023-04-28T05:18:44.037Z,22.97
2023-04-28T05:19:44.095Z,22.97
2023-04-28T05:20:44.155Z,22.94
2023-04-28T05:21:44.228Z,22.94
2023-04-28T05:22:44.279Z,22.94
2023-04-28T05:23:44.334Z,22.95
2023-04-28T05:24:44.401Z,22.94
2023-04-28T05:25:44.451Z,22.96
2023-04-28T05:26:44.511Z,22.96
2023-04-28T05:27:44.576Z,22.98
2023-04-28T05:28:44.626Z,23.00
2023-04-28T05:29:44.720Z,23.03
2023-04-28T05:30:44.734Z,23.06
2023-04-28T05:31:44.888Z,23.09
2023-04-28T05:32:44.914Z,23.15
2023-04-28T05:33:44.934Z,23.20
2023-04-28T05:34:44.990Z,23.25
2023-04-28T05:35:45.030Z,23.30
2023-04-28T05:36:45.061Z,23.35
2023-04-28T05:37:45.146Z,23.39
2023-04-28T05:38:45.138Z,23.42
2023-04-28T05:39:45.145Z,23.45
2023-04-28T05:40:45.735Z,23.48
2023-04-28T05:41:45.170Z,23.50
2023-04-28T05:42:45.153Z,23.52
2023-04-28T05:43:45.156Z,23.55
2023-04-28T05:44:45.166Z,23.56
2023-04-28T05:45:45.233Z,23.59
2023-04-28T05:46:45.276Z,23.62
2023-04-28T05:47:45.226Z,23.64
2023-04-28T05:48:45.211Z,23.66
2023-04-28T05:49:45.250Z,23.68
2023-04-28T05:50:45.270Z,23.70
2023-04-28T05:51:45.290Z,23.72
2023-04-28T05:52:45.292Z,23.74
2023-04-28T05:53:45.333Z,23.76
2023-04-28T05:54:45.380Z,23.77
2023-04-28T05:55:45.434Z,23.77
2023-04-28T05:56:45.472Z,23.79
2023-04-28T05:57:52.994Z,23.81
2023-04-28T05:58:46.515Z,23.83
2023-04-28T05:59:45.512Z,23.85
2023-04-28T06:00:45.505Z,23.86
2023-04-28T06:01:45.513Z,23.87
2023-04-28T06:02:45.762Z,23.88
2023-04-28T06:03:45.853Z,23.89
2023-04-28T06:04:45.730Z,23.91
2023-04-28T06:05:45.708Z,23.91
2023-04-28T06:06:45.474Z,23.91
2023-04-28T06:07:45.545Z,23.93
2023-04-28T06:08:45.583Z,23.94
2023-04-28T06:09:45.615Z,23.95
2023-04-28T06:10:45.659Z,23.94
2023-04-28T06:11:45.706Z,23.96
2023-04-28T06:12:45.760Z,23.96
2023-04-28T06:13:45.793Z,23.97
2023-04-28T06:14:45.824Z,23.98
2023-04-28T06:15:45.961Z,23.98
2023-04-28T06:16:45.943Z,24.00
2023-04-28T06:17:46.029Z,24.00
2023-04-28T06:18:47.768Z,24.00
2023-04-28T06:19:46.093Z,23.99
2023-04-28T06:20:46.101Z,23.94
2023-04-28T06:21:46.111Z,23.92
2023-04-28T06:22:46.105Z,23.88
2023-04-28T06:23:46.121Z,23.85
2023-04-28T06:24:46.108Z,23.81
2023-04-28T06:25:47.097Z,23.77
2023-04-28T06:26:46.152Z,23.74
2023-04-28T06:27:46.090Z,23.71
2023-04-28T06:28:46.090Z,23.68
2023-04-28T06:29:46.084Z,23.65
2023-04-28T06:30:46.072Z,23.63
2023-04-28T06:31:46.117Z,23.61
2023-04-28T06:32:46.090Z,23.59
2023-04-28T06:33:46.079Z,23.57
2023-04-28T06:34:46.058Z,23.55
2023-04-28T06:35:46.068Z,23.54
2023-04-28T06:36:46.052Z,23.51
2023-04-28T06:37:46.052Z,23.50
2023-04-28T06:38:46.101Z,23.50
2023-04-28T06:39:46.105Z,23.48
2023-04-28T06:40:46.040Z,23.47
2023-04-28T06:41:46.054Z,23.47
2023-04-28T06:42:46.025Z,23.45
2023-04-28T06:43:46.061Z,23.44
2023-04-28T06:44:46.099Z,23.42
2023-04-28T06:45:46.128Z,23.42
2023-04-28T06:46:46.266Z,23.41
2023-04-28T06:47:46.292Z,23.40
2023-04-28T06:48:46.250Z,23.39
2023-04-28T06:49:46.286Z,23.38
2023-04-28T06:50:47.279Z,23.37
2023-04-28T06:51:46.275Z,23.36
2023-04-28T06:52:46.262Z,23.35
2023-04-28T06:53:46.264Z,23.34
2023-04-28T06:54:46.239Z,23.34
2023-04-28T06:55:46.242Z,23.33
2023-04-28T06:56:46.227Z,23.32
2023-04-28T06:57:46.221Z,23.31
2023-04-28T06:58:46.210Z,23.31
2023-04-28T06:59:46.204Z,23.30
2023-04-28T07:00:46.241Z,23.30
2023-04-28T07:01:46.252Z,23.29
2023-04-28T07:02:46.385Z,23.28
2023-04-28T07:03:46.448Z,23.28
2023-04-28T07:04:46.349Z,23.28
2023-04-28T07:05:46.406Z,23.28
2023-04-28T07:06:46.471Z,23.27
2023-04-28T07:07:46.514Z,23.26
2023-04-28T07:08:46.567Z,23.26
2023-04-28T07:09:46.620Z,23.25
2023-04-28T07:10:46.674Z,23.24
2023-04-28T07:11:46.730Z,23.23
2023-04-28T07:12:46.782Z,23.23
2023-04-28T07:13:47.020Z,23.22
2023-04-28T07:14:47.157Z,23.21
2023-04-28T07:15:46.961Z,23.19
2023-04-28T07:16:47.198Z,23.19
2023-04-28T07:17:47.126Z,23.19
2023-04-28T07:18:47.151Z,23.15
2023-04-28T07:19:47.213Z,23.03
2023-04-28T07:20:47.305Z,22.98
2023-04-28T07:21:47.306Z,22.90
2023-04-28T07:22:47.320Z,22.91
2023-04-28T07:23:47.360Z,22.96
2023-04-28T07:24:47.430Z,23.02
2023-04-28T07:25:47.492Z,23.08
2023-04-28T07:26:47.532Z,23.14
2023-04-28T07:27:47.602Z,23.20
2023-04-28T07:28:47.667Z,23.27
2023-04-28T07:29:47.702Z,23.32
2023-04-28T07:30:47.999Z,23.38
2023-04-28T07:31:47.860Z,23.44
2023-04-28T07:32:47.862Z,23.49
2023-04-28T07:33:47.843Z,23.55
2023-04-28T07:34:47.866Z,23.60
2023-04-28T07:35:47.870Z,23.65
2023-04-28T07:36:47.884Z,23.68
2023-04-28T07:37:47.900Z,23.71
2023-04-28T07:38:47.911Z,23.74
2023-04-28T07:39:47.901Z,23.77
2023-04-28T07:40:47.895Z,23.81
2023-04-28T07:41:47.928Z,23.84
2023-04-28T07:42:47.914Z,23.86
2023-04-28T07:43:47.947Z,23.90
2023-04-28T07:44:47.893Z,23.91
2023-04-28T07:45:47.985Z,23.93
2023-04-28T07:46:48.664Z,23.96
2023-04-28T07:47:48.049Z,23.97
2023-04-28T07:48:47.999Z,23.99
2023-04-28T07:49:48.057Z,24.01
2023-04-28T07:50:48.124Z,24.02
2023-04-28T07:51:48.181Z,24.03
2023-04-28T07:52:48.232Z,24.05
2023-04-28T07:53:48.281Z,24.06
2023-04-28T07:54:48.365Z,24.06
2023-04-28T07:55:48.369Z,24.05
2023-04-28T07:56:48.406Z,24.05
2023-04-28T07:57:48.787Z,24.06
2023-04-28T07:58:49.216Z,24.08
2023-04-28T07:59:48.563Z,24.09
2023-04-28T08:00:49.231Z,24.10
2023-04-28T08:01:48.692Z,24.12
2023-04-28T08:02:48.948Z,24.13
2023-04-28T08:03:48.963Z,24.14
2023-04-28T08:04:49.014Z,24.16
2023-04-28T08:05:49.827Z,24.17
2023-04-28T08:06:48.961Z,24.17
2023-04-28T08:07:49.030Z,24.18
2023-04-28T08:08:49.057Z,24.19
2023-04-28T08:09:49.116Z,24.18
2023-04-28T08:10:49.167Z,24.11
2023-04-28T08:11:49.299Z,24.07
2023-04-28T08:12:49.226Z,23.98
2023-04-28T08:13:49.789Z,23.97
2023-04-28T08:14:49.252Z,23.96
2023-04-28T08:15:49.339Z,23.96
2023-04-28T08:16:49.247Z,23.98
2023-04-28T08:17:49.247Z,24.02
2023-04-28T08:18:49.320Z,24.02
2023-04-28T08:19:49.258Z,24.04
2023-04-28T08:20:49.306Z,24.06
2023-04-28T08:21:49.367Z,24.08
2023-04-28T08:22:50.214Z,24.07
2023-04-28T08:23:49.471Z,23.98
2023-04-28T08:24:49.492Z,23.95
2023-04-28T08:25:49.499Z,23.96
2023-04-28T08:26:49.517Z,24.00
2023-04-28T08:27:49.558Z,23.94
2023-04-28T08:28:50.212Z,23.86
2023-04-28T08:29:49.640Z,23.50
2023-04-28T08:30:49.646Z,23.03
2023-04-28T08:31:50.735Z,22.86
2023-04-28T08:32:49.825Z,22.82
2023-04-28T08:33:49.643Z,22.82
2023-04-28T08:34:49.729Z,22.84
2023-04-28T08:35:49.649Z,22.85
2023-04-28T08:36:50.287Z,22.89
2023-04-28T08:37:49.735Z,22.95
2023-04-28T08:38:49.663Z,23.03
2023-04-28T08:39:49.677Z,23.11
2023-04-28T08:40:49.667Z,23.21
2023-04-28T08:41:49.670Z,23.32
2023-04-28T08:42:49.670Z,23.41
2023-04-28T08:43:49.666Z,23.51
2023-04-28T08:44:49.668Z,23.60
2023-04-28T08:45:49.696Z,23.68
2023-04-28T08:46:49.782Z,23.75
2023-04-28T08:47:49.814Z,23.82
2023-04-28T08:48:49.700Z,23.87
2023-04-28T08:49:49.731Z,23.92
2023-04-28T08:50:49.777Z,23.96
2023-04-28T08:51:49.857Z,24.00
2023-04-28T08:52:49.911Z,24.04
2023-04-28T08:54:29.367Z,24.07
2023-04-28T08:54:50.954Z,24.10
2023-04-28T08:55:49.981Z,24.13
2023-04-28T08:56:49.903Z,24.16
2023-04-28T08:57:49.899Z,24.18
2023-04-28T08:58:49.915Z,24.20
2023-04-28T08:59:49.876Z,24.23
2023-04-28T09:00:49.868Z,24.24
2023-04-28T09:01:49.924Z,24.25
2023-04-28T09:02:49.993Z,24.28
2023-04-28T09:03:49.998Z,24.30
2023-04-28T09:04:50.050Z,24.32
2023-04-28T09:05:49.817Z,24.32
2023-04-28T09:06:49.815Z,24.31
2023-04-28T09:07:49.774Z,24.06
2023-04-28T09:08:49.768Z,23.55
2023-04-28T09:09:49.759Z,23.03
2023-04-28T09:10:49.803Z,22.52
2023-04-28T09:11:49.933Z,22.02
2023-04-28T09:12:49.994Z,21.56
2023-04-28T09:13:49.930Z,21.24
2023-04-28T09:14:50.960Z,21.06
2023-04-28T09:15:49.955Z,21.15
2023-04-28T09:16:50.854Z,21.34
2023-04-28T09:17:50.072Z,21.55
2023-04-28T09:18:49.995Z,21.78
2023-04-28T09:19:50.736Z,21.98
2023-04-28T09:20:50.021Z,22.12
2023-04-28T09:21:50.053Z,22.25
2023-04-28T09:22:50.037Z,22.40
2023-04-28T09:23:50.872Z,22.55
2023-04-28T09:24:50.093Z,22.71
2023-04-28T09:25:50.032Z,22.85
2023-04-28T09:26:50.033Z,22.99
2023-04-28T09:27:50.025Z,23.12
2023-04-28T09:28:50.027Z,23.21
2023-04-28T09:29:50.074Z,23.22
2023-04-28T09:30:50.127Z,23.20
2023-04-28T09:31:50.209Z,23.13
2023-04-28T09:32:50.342Z,23.07
2023-04-28T09:33:51.251Z,23.02
2023-04-28T09:34:50.272Z,23.00
2023-04-28T09:35:50.246Z,22.97
2023-04-28T09:36:50.254Z,22.96
2023-04-28T09:37:50.313Z,22.94
2023-04-28T09:38:50.238Z,22.95
2023-04-28T09:39:50.234Z,22.90
2023-04-28T09:40:50.269Z,22.86
2023-04-28T09:41:50.294Z,22.81
2023-04-28T09:42:50.281Z,22.80
2023-04-28T09:43:50.238Z,22.79
2023-04-28T09:44:50.226Z,22.77
2023-04-28T09:45:50.294Z,22.80
2023-04-28T09:46:50.243Z,22.86
2023-04-28T09:47:50.318Z,22.92
2023-04-28T09:48:50.338Z,22.98
2023-04-28T09:49:50.380Z,23.05
2023-04-28T09:50:50.459Z,23.10
2023-04-28T09:51:51.250Z,23.15
2023-04-28T09:52:50.592Z,23.20
2023-04-28T09:53:50.676Z,23.25
2023-04-28T09:54:51.329Z,23.32
2023-04-28T09:55:50.727Z,23.40
2023-04-28T09:56:50.764Z,23.49
2023-04-28T09:57:50.801Z,23.57
2023-04-28T09:58:50.790Z,23.65
2023-04-28T09:59:50.787Z,23.72
2023-04-28T10:00:50.846Z,23.77
2023-04-28T10:01:51.791Z,23.80
2023-04-28T10:02:50.865Z,23.86
2023-04-28T10:03:50.889Z,23.91
2023-04-28T10:04:50.899Z,23.97
2023-04-28T10:05:50.846Z,24.02
2023-04-28T10:06:50.914Z,24.06
2023-04-28T10:07:50.959Z,24.08
2023-04-28T10:08:50.998Z,24.08
2023-04-28T10:09:51.068Z,24.11
2023-04-28T10:10:51.100Z,24.15
2023-04-28T10:11:51.157Z,24.17
2023-04-28T10:12:51.245Z,24.18
2023-04-28T10:13:51.255Z,24.18
2023-04-28T10:14:51.299Z,24.18
2023-04-28T10:15:51.429Z,24.17
2023-04-28T10:16:51.402Z,24.18
2023-04-28T10:17:51.466Z,24.17
2023-04-28T10:18:51.510Z,24.16
2023-04-28T10:19:51.568Z,24.15
2023-04-28T10:20:51.615Z,24.14
2023-04-28T10:21:51.701Z,24.13
2023-04-28T10:22:51.734Z,24.11
2023-04-28T10:23:51.792Z,24.09
2023-04-28T10:24:51.837Z,24.08
2023-04-28T10:25:51.897Z,24.07
2023-04-28T10:26:51.962Z,24.05
2023-04-28T10:27:52.025Z,24.05
2023-04-28T10:28:52.203Z,24.03
2023-04-28T10:29:52.117Z,24.01
2023-04-28T10:30:52.153Z,23.98
2023-04-28T10:31:52.143Z,23.95
2023-04-28T10:32:52.177Z,23.92
2023-04-28T10:33:52.121Z,23.88
2023-04-28T10:34:52.121Z,23.86
2023-04-28T10:35:52.112Z,23.84
2023-04-28T10:36:52.113Z,23.81
2023-04-28T10:37:52.103Z,23.79
2023-04-28T10:38:52.109Z,23.75
2023-04-28T10:39:52.117Z,23.73
2023-04-28T10:40:52.139Z,23.71
2023-04-28T10:41:52.147Z,23.69
2023-04-28T10:42:52.148Z,23.68
2023-04-28T10:43:52.169Z,23.67
2023-04-28T10:44:52.183Z,23.66
2023-04-28T10:45:55.665Z,23.63
2023-04-28T10:46:52.272Z,23.62
2023-04-28T10:47:52.240Z,23.62
2023-04-28T10:48:52.199Z,23.62
2023-04-28T10:49:52.176Z,23.62
2023-04-28T10:50:52.168Z,23.63
2023-04-28T10:51:52.165Z,23.63
2023-04-28T10:52:52.165Z,23.63
2023-04-28T10:53:52.158Z,23.63
2023-04-28T10:54:52.152Z,23.65
2023-04-28T10:55:52.154Z,23.64
2023-04-28T10:56:52.151Z,23.65
2023-04-28T10:57:52.148Z,23.66
2023-04-28T10:58:52.780Z,23.65
2023-04-28T10:59:52.126Z,23.65
2023-04-28T11:00:52.137Z,23.65
2023-04-28T11:01:52.162Z,23.65
2023-04-28T11:02:52.220Z,23.65
2023-04-28T11:03:52.801Z,23.66
2023-04-28T11:04:52.267Z,23.66
2023-04-28T11:05:52.092Z,23.65
2023-04-28T11:06:52.080Z,23.66
2023-04-28T11:07:53.524Z,23.65
2023-04-28T11:08:52.064Z,23.66
2023-04-28T11:09:52.043Z,23.66
2023-04-28T11:10:52.039Z,23.66
2023-04-28T11:11:52.021Z,23.67
2023-04-28T11:12:52.010Z,23.66
2023-04-28T11:13:51.998Z,23.67
2023-04-28T11:14:51.996Z,23.68
2023-04-28T11:15:52.022Z,23.67
2023-04-28T11:16:52.167Z,23.67
2023-04-28T11:17:51.994Z,23.67
2023-04-28T11:18:54.378Z,23.67
2023-04-28T11:19:51.977Z,23.67
2023-04-28T11:20:51.970Z,23.67
2023-04-28T11:21:51.972Z,23.66
2023-04-28T11:22:51.972Z,23.67
2023-04-28T11:23:51.981Z,23.67
2023-04-28T11:24:54.012Z,23.67
2023-04-28T11:25:51.973Z,23.66
2023-04-28T11:26:51.952Z,23.67
2023-04-28T11:27:51.941Z,23.67
2023-04-28T11:28:51.946Z,23.67
2023-04-28T11:29:51.940Z,23.67
2023-04-28T11:30:54.138Z,23.66
2023-04-28T11:31:51.963Z,23.66
2023-04-28T11:32:51.975Z,23.66
2023-04-28T11:33:51.913Z,23.65
2023-04-28T11:34:51.891Z,23.65
2023-04-28T11:35:51.891Z,23.65
2023-04-28T11:36:54.145Z,23.64
2023-04-28T11:37:51.962Z,23.63
2023-04-28T11:38:51.887Z,23.64
2023-04-28T11:39:51.885Z,23.64
2023-04-28T11:40:51.883Z,23.64
2023-04-28T11:41:51.865Z,23.64
2023-04-28T11:42:51.867Z,23.63
2023-04-28T11:43:51.895Z,23.63
2023-04-28T11:44:51.856Z,23.63
2023-04-28T11:45:51.877Z,23.63
2023-04-28T11:46:51.857Z,23.63
2023-04-28T11:47:51.867Z,23.62
2023-04-28T11:48:51.843Z,23.62
2023-04-28T11:49:51.840Z,23.62
2023-04-28T11:50:51.834Z,23.62
2023-04-28T11:51:51.829Z,23.60
2023-04-28T11:52:53.740Z,23.61
2023-04-28T11:53:51.827Z,23.60
2023-04-28T11:54:51.815Z,23.60
2023-04-28T11:55:51.813Z,23.60
2023-04-28T11:56:51.814Z,23.60
2023-04-28T11:57:51.810Z,23.59
2023-04-28T11:58:51.831Z,23.59
2023-04-28T11:59:51.850Z,23.59
2023-04-28T12:00:51.812Z,23.59
2023-04-28T12:01:51.866Z,23.58
2023-04-28T12:02:52.009Z,23.59
2023-04-28T12:03:51.885Z,23.58
2023-04-28T12:04:51.806Z,23.59
2023-04-28T12:05:51.818Z,23.59
2023-04-28T12:06:51.802Z,23.58
2023-04-28T12:07:51.793Z,23.58
2023-04-28T12:08:51.807Z,23.58
2023-04-28T12:09:51.878Z,23.58
2023-04-28T12:10:51.797Z,23.58
2023-04-28T12:11:51.785Z,23.58
2023-04-28T12:12:53.414Z,23.58
2023-04-28T12:13:51.775Z,23.58
2023-04-28T12:14:51.774Z,23.57
2023-04-28T12:15:51.820Z,23.58
2023-04-28T12:16:51.798Z,23.57
2023-04-28T12:17:52.183Z,23.57
2023-04-28T12:18:51.806Z,23.56
2023-04-28T12:19:51.825Z,23.57
2023-04-28T12:20:51.839Z,23.56
2023-04-28T12:21:51.859Z,23.56
2023-04-28T12:22:51.887Z,23.56
2023-04-28T12:23:51.905Z,23.56
2023-04-28T12:24:51.934Z,23.56
2023-04-28T12:25:51.948Z,23.55
2023-04-28T12:26:51.962Z,23.56
2023-04-28T12:27:51.987Z,23.56
2023-04-28T12:28:52.014Z,23.56
2023-04-28T12:29:52.049Z,23.55
2023-04-28T12:30:52.060Z,23.56
2023-04-28T12:31:52.152Z,23.56
2023-04-28T12:32:52.141Z,23.56
2023-04-28T12:33:52.155Z,23.55
2023-04-28T12:34:52.165Z,23.55
2023-04-28T12:35:52.183Z,23.54
2023-04-28T12:36:52.203Z,23.54
2023-04-28T12:37:52.246Z,23.55
2023-04-28T12:38:52.268Z,23.54
2023-04-28T12:39:52.268Z,23.53
2023-04-28T12:40:52.301Z,23.53
2023-04-28T12:41:52.306Z,23.53
2023-04-28T12:42:52.336Z,23.54
2023-04-28T12:43:52.364Z,23.53
2023-04-28T12:44:52.388Z,23.53
2023-04-28T12:45:52.449Z,23.53
2023-04-28T12:46:52.447Z,23.53
2023-04-28T12:47:52.475Z,23.53
2023-04-28T12:48:52.470Z,23.53
2023-04-28T12:49:52.521Z,23.53
2023-04-28T12:50:52.543Z,23.54
2023-04-28T12:51:52.527Z,23.53
2023-04-28T12:52:52.547Z,23.53
2023-04-28T12:53:53.548Z,23.52